sensor_id;sensor_type;location;lat;lon;timestamp;P1;durP1;ratioP1;P2;durP2;ratioP2
50531;SDS011;36483;37.396;-122.212;2022-09-09T00:00:47;12.48;;;4.65;;
50531;SDS011;36483;37.396;-122.212;2022-09-09T00:03:23;10.27;;;5.25;;
50531;SDS011;36483;37.396;-122.212;2022-09-09T00:05:55;11.68;;;4.97;;
50531;SDS011;36483;37.396;-122.212;2022-09-09T00:08:35;14.30;;;5.13;;
50531;SDS011;36483;37.396;-122.212;2022-09-09T00:11:26;11.80;;;4.53;;
50531;SDS011;36483;37.396;-122.212;2022-09-09T00:14:40;9.35;;;4.32;;
50531;SDS011;36483;37.396;-122.212;2022-09-09T00:18:18;10.77;;;4.95;;
50531;SDS011;36483;37.396;-122.212;2022-09-09T00:20:21;11.55;;;4.70;;
50531;SDS011;36483;37.396;-122.212;2022-09-09T00:23:17;12.95;;;5.00;;
50531;SDS011;36483;37.396;-122.212;2022-09-09T00:31:31;10.68;;;4.78;;
50531;SDS011;36483;37.396;-122.212;2022-09-09T00:34:30;10.85;;;4.50;;
50531;SDS011;36483;37.396;-122.212;2022-09-09T00:36:52;12.35;;;4.10;;
50531;SDS011;36483;37.396;-122.212;2022-09-09T00:39:27;10.40;;;4.47;;
50531;SDS011;36483;37.396;-122.212;2022-09-09T00:47:54;14.10;;;4.47;;
50531;SDS011;36483;37.396;-122.212;2022-09-09T00:58:14;12.27;;;4.90;;
50531;SDS011;36483;37.396;-122.212;2022-09-09T01:00:42;11.55;;;4.05;;
50531;SDS011;36483;37.396;-122.212;2022-09-09T01:09:22;10.70;;;4.18;;
50531;SDS011;36483;37.396;-122.212;2022-09-09T01:14:38;13.63;;;4.57;;
50531;SDS011;36483;37.396;-122.212;2022-09-09T01:22:36;9.80;;;4.40;;
50531;SDS011;36483;37.396;-122.212;2022-09-09T01:25:56;13.48;;;4.22;;
50531;SDS011;36483;37.396;-122.212;2022-09-09T01:28:30;11.48;;;4.65;;
50531;SDS011;36483;37.396;-122.212;2022-09-09T01:30:57;10.93;;;4.47;;
50531;SDS011;36483;37.396;-122.212;2022-09-09T01:33:24;13.25;;;4.57;;
50531;SDS011;36483;37.396;-122.212;2022-09-09T01:35:58;13.93;;;4.80;;
50531;SDS011;36483;37.396;-122.212;2022-09-09T01:38:43;10.93;;;4.28;;
50531;SDS011;36483;37.396;-122.212;2022-09-09T01:41:09;11.25;;;4.25;;
50531;SDS011;36483;37.396;-122.212;2022-09-09T01:43:35;10.40;;;4.10;;
50531;SDS011;36483;37.396;-122.212;2022-09-09T01:46:02;10.88;;;4.80;;
50531;SDS011;36483;37.396;-122.212;2022-09-09T01:48:28;18.08;;;4.65;;
50531;SDS011;36483;37.396;-122.212;2022-09-09T01:50:55;20.75;;;4.78;;
50531;SDS011;36483;37.396;-122.212;2022-09-09T01:53:22;11.52;;;4.68;;
50531;SDS011;36483;37.396;-122.212;2022-09-09T02:01:40;12.00;;;4.68;;
50531;SDS011;36483;37.396;-122.212;2022-09-09T02:04:24;13.20;;;4.82;;
50531;SDS011;36483;37.396;-122.212;2022-09-09T02:07:10;11.75;;;4.30;;
50531;SDS011;36483;37.396;-122.212;2022-09-09T02:09:41;13.07;;;4.38;;
50531;SDS011;36483;37.396;-122.212;2022-09-09T02:12:14;9.55;;;4.18;;
50531;SDS011;36483;37.396;-122.212;2022-09-09T02:14:46;11.50;;;5.05;;
50531;SDS011;36483;37.396;-122.212;2022-09-09T02:17:24;16.33;;;4.70;;
50531;SDS011;36483;37.396;-122.212;2022-09-09T02:19:54;13.23;;;4.75;;
50531;SDS011;36483;37.396;-122.212;2022-09-09T02:22:25;13.18;;;4.68;;
50531;SDS011;36483;37.396;-122.212;2022-09-09T02:24:53;16.02;;;5.30;;
50531;SDS011;36483;37.396;-122.212;2022-09-09T02:27:23;12.57;;;5.00;;
50531;SDS011;36483;37.396;-122.212;2022-09-09T02:29:49;20.38;;;6.07;;
50531;SDS011;36483;37.396;-122.212;2022-09-09T02:32:17;19.42;;;6.15;;
50531;SDS011;36483;37.396;-122.212;2022-09-09T02:35:05;19.63;;;6.18;;
50531;SDS011;36483;37.396;-122.212;2022-09-09T02:37:38;23.52;;;6.63;;
50531;SDS011;36483;37.396;-122.212;2022-09-09T02:40:05;18.63;;;6.82;;
50531;SDS011;36483;37.396;-122.212;2022-09-09T02:42:38;25.48;;;7.93;;
50531;SDS011;36483;37.396;-122.212;2022-09-09T02:45:09;23.25;;;7.32;;
50531;SDS011;36483;37.396;-122.212;2022-09-09T02:48:00;23.40;;;7.40;;
50531;SDS011;36483;37.396;-122.212;2022-09-09T02:51:02;25.85;;;8.18;;
50531;SDS011;36483;37.396;-122.212;2022-09-09T02:53:48;27.30;;;8.05;;
50531;SDS011;36483;37.396;-122.212;2022-09-09T02:56:25;21.08;;;6.90;;
50531;SDS011;36483;37.396;-122.212;2022-09-09T02:58:54;28.15;;;9.10;;
50531;SDS011;36483;37.396;-122.212;2022-09-09T03:01:20;26.52;;;7.97;;
50531;SDS011;36483;37.396;-122.212;2022-09-09T03:03:46;24.23;;;7.55;;
50531;SDS011;36483;37.396;-122.212;2022-09-09T03:06:13;24.27;;;7.45;;
50531;SDS011;36483;37.396;-122.212;2022-09-09T03:08:39;27.60;;;8.32;;
50531;SDS011;36483;37.396;-122.212;2022-09-09T03:11:06;24.90;;;7.85;;
50531;SDS011;36483;37.396;-122.212;2022-09-09T03:13:34;27.55;;;8.30;;
50531;SDS011;36483;37.396;-122.212;2022-09-09T03:16:00;28.77;;;7.80;;
50531;SDS011;36483;37.396;-122.212;2022-09-09T03:18:26;23.23;;;7.60;;
50531;SDS011;36483;37.396;-122.212;2022-09-09T03:20:53;27.20;;;7.20;;
50531;SDS011;36483;37.396;-122.212;2022-09-09T03:23:19;24.05;;;7.25;;
50531;SDS011;36483;37.396;-122.212;2022-09-09T03:25:47;26.85;;;7.50;;
50531;SDS011;36483;37.396;-122.212;2022-09-09T03:28:14;22.33;;;7.40;;
50531;SDS011;36483;37.396;-122.212;2022-09-09T03:30:40;27.50;;;8.15;;
50531;SDS011;36483;37.396;-122.212;2022-09-09T03:33:06;23.63;;;7.93;;
50531;SDS011;36483;37.396;-122.212;2022-09-09T03:35:32;24.60;;;8.00;;
50531;SDS011;36483;37.396;-122.212;2022-09-09T03:37:58;28.15;;;7.70;;
50531;SDS011;36483;37.396;-122.212;2022-09-09T03:40:26;24.58;;;8.40;;
50531;SDS011;36483;37.396;-122.212;2022-09-09T03:42:52;28.92;;;7.78;;
50531;SDS011;36483;37.396;-122.212;2022-09-09T03:45:18;27.75;;;7.85;;
50531;SDS011;36483;37.396;-122.212;2022-09-09T03:48:04;24.45;;;8.57;;
50531;SDS011;36483;37.396;-122.212;2022-09-09T03:50:31;27.20;;;8.40;;
50531;SDS011;36483;37.396;-122.212;2022-09-09T03:52:57;26.70;;;8.05;;
50531;SDS011;36483;37.396;-122.212;2022-09-09T03:55:23;32.58;;;8.38;;
50531;SDS011;36483;37.396;-122.212;2022-09-09T03:57:49;26.30;;;7.82;;
50531;SDS011;36483;37.396;-122.212;2022-09-09T04:00:15;26.27;;;7.97;;
50531;SDS011;36483;37.396;-122.212;2022-09-09T04:02:41;29.88;;;8.20;;
50531;SDS011;36483;37.396;-122.212;2022-09-09T04:05:08;24.83;;;8.98;;
50531;SDS011;36483;37.396;-122.212;2022-09-09T04:07:35;24.50;;;7.80;;
50531;SDS011;36483;37.396;-122.212;2022-09-09T04:10:01;30.48;;;8.35;;
50531;SDS011;36483;37.396;-122.212;2022-09-09T04:12:27;26.38;;;7.88;;
50531;SDS011;36483;37.396;-122.212;2022-09-09T04:14:53;24.73;;;8.48;;
50531;SDS011;36483;37.396;-122.212;2022-09-09T04:17:19;33.70;;;9.02;;
50531;SDS011;36483;37.396;-122.212;2022-09-09T04:19:45;26.83;;;8.00;;
50531;SDS011;36483;37.396;-122.212;2022-09-09T04:22:11;27.83;;;9.90;;
50531;SDS011;36483;37.396;-122.212;2022-09-09T04:24:37;33.17;;;8.88;;
50531;SDS011;36483;37.396;-122.212;2022-09-09T04:27:03;31.17;;;9.10;;
50531;SDS011;36483;37.396;-122.212;2022-09-09T04:29:30;30.90;;;8.02;;
50531;SDS011;36483;37.396;-122.212;2022-09-09T04:31:56;28.80;;;8.57;;
50531;SDS011;36483;37.396;-122.212;2022-09-09T04:34:22;31.10;;;9.10;;
50531;SDS011;36483;37.396;-122.212;2022-09-09T04:36:48;33.28;;;9.15;;
50531;SDS011;36483;37.396;-122.212;2022-09-09T04:39:14;33.90;;;8.88;;
50531;SDS011;36483;37.396;-122.212;2022-09-09T04:41:40;28.60;;;8.68;;
50531;SDS011;36483;37.396;-122.212;2022-09-09T04:44:06;31.98;;;9.45;;
50531;SDS011;36483;37.396;-122.212;2022-09-09T04:46:32;32.08;;;9.82;;
50531;SDS011;36483;37.396;-122.212;2022-09-09T04:49:01;28.63;;;9.68;;
50531;SDS011;36483;37.396;-122.212;2022-09-09T04:51:27;28.50;;;8.25;;
50531;SDS011;36483;37.396;-122.212;2022-09-09T04:53:53;33.97;;;9.75;;
50531;SDS011;36483;37.396;-122.212;2022-09-09T04:56:20;26.77;;;8.65;;
50531;SDS011;36483;37.396;-122.212;2022-09-09T04:58:46;27.30;;;8.93;;
50531;SDS011;36483;37.396;-122.212;2022-09-09T05:01:16;34.85;;;9.32;;
50531;SDS011;36483;37.396;-122.212;2022-09-09T05:03:43;33.40;;;8.90;;
50531;SDS011;36483;37.396;-122.212;2022-09-09T05:06:16;36.08;;;9.82;;
50531;SDS011;36483;37.396;-122.212;2022-09-09T05:11:20;31.25;;;9.55;;
50531;SDS011;36483;37.396;-122.212;2022-09-09T05:13:52;27.88;;;8.57;;
50531;SDS011;36483;37.396;-122.212;2022-09-09T05:16:19;35.47;;;9.13;;
50531;SDS011;36483;37.396;-122.212;2022-09-09T05:18:46;28.50;;;8.75;;
50531;SDS011;36483;37.396;-122.212;2022-09-09T05:21:13;29.55;;;9.25;;
50531;SDS011;36483;37.396;-122.212;2022-09-09T05:23:40;33.20;;;9.32;;
50531;SDS011;36483;37.396;-122.212;2022-09-09T05:26:07;26.67;;;8.52;;
50531;SDS011;36483;37.396;-122.212;2022-09-09T05:28:37;34.45;;;9.20;;
50531;SDS011;36483;37.396;-122.212;2022-09-09T05:31:07;31.63;;;8.98;;
50531;SDS011;36483;37.396;-122.212;2022-09-09T05:33:34;28.85;;;9.23;;
50531;SDS011;36483;37.396;-122.212;2022-09-09T05:36:02;36.30;;;9.82;;
50531;SDS011;36483;37.396;-122.212;2022-09-09T05:38:39;30.70;;;9.23;;
50531;SDS011;36483;37.396;-122.212;2022-09-09T05:41:06;29.65;;;9.10;;
50531;SDS011;36483;37.396;-122.212;2022-09-09T05:43:32;29.80;;;9.10;;
50531;SDS011;36483;37.396;-122.212;2022-09-09T05:46:04;29.90;;;9.23;;
50531;SDS011;36483;37.396;-122.212;2022-09-09T05:48:35;34.50;;;9.85;;
50531;SDS011;36483;37.396;-122.212;2022-09-09T05:51:06;28.83;;;8.77;;
50531;SDS011;36483;37.396;-122.212;2022-09-09T05:53:33;37.72;;;9.82;;
50531;SDS011;36483;37.396;-122.212;2022-09-09T05:56:03;32.53;;;8.77;;
50531;SDS011;36483;37.396;-122.212;2022-09-09T05:58:34;25.75;;;9.15;;
50531;SDS011;36483;37.396;-122.212;2022-09-09T06:01:04;31.20;;;9.65;;
50531;SDS011;36483;37.396;-122.212;2022-09-09T06:03:35;29.88;;;9.60;;
50531;SDS011;36483;37.396;-122.212;2022-09-09T06:06:04;26.50;;;9.10;;
50531;SDS011;36483;37.396;-122.212;2022-09-09T06:08:32;32.35;;;9.65;;
50531;SDS011;36483;37.396;-122.212;2022-09-09T06:11:06;30.85;;;8.73;;
50531;SDS011;36483;37.396;-122.212;2022-09-09T06:13:34;32.42;;;9.20;;
50531;SDS011;36483;37.396;-122.212;2022-09-09T06:16:02;28.98;;;9.80;;
50531;SDS011;36483;37.396;-122.212;2022-09-09T06:18:29;31.23;;;8.88;;
50531;SDS011;36483;37.396;-122.212;2022-09-09T06:20:59;32.42;;;8.77;;
50531;SDS011;36483;37.396;-122.212;2022-09-09T06:23:26;29.10;;;9.25;;
50531;SDS011;36483;37.396;-122.212;2022-09-09T06:26:06;27.17;;;9.13;;
50531;SDS011;36483;37.396;-122.212;2022-09-09T06:28:35;37.20;;;9.88;;
50531;SDS011;36483;37.396;-122.212;2022-09-09T06:31:02;27.80;;;9.65;;
50531;SDS011;36483;37.396;-122.212;2022-09-09T06:33:48;30.90;;;9.18;;
50531;SDS011;36483;37.396;-122.212;2022-09-09T06:36:17;28.13;;;9.52;;
50531;SDS011;36483;37.396;-122.212;2022-09-09T06:38:44;30.48;;;9.05;;
50531;SDS011;36483;37.396;-122.212;2022-09-09T06:41:11;29.98;;;8.82;;
50531;SDS011;36483;37.396;-122.212;2022-09-09T06:43:39;29.88;;;8.95;;
50531;SDS011;36483;37.396;-122.212;2022-09-09T06:46:12;29.90;;;8.48;;
50531;SDS011;36483;37.396;-122.212;2022-09-09T06:48:40;31.08;;;9.65;;
50531;SDS011;36483;37.396;-122.212;2022-09-09T06:53:43;28.70;;;8.90;;
50531;SDS011;36483;37.396;-122.212;2022-09-09T06:58:37;30.92;;;8.82;;
50531;SDS011;36483;37.396;-122.212;2022-09-09T07:01:08;27.40;;;8.95;;
50531;SDS011;36483;37.396;-122.212;2022-09-09T07:03:34;29.50;;;9.32;;
50531;SDS011;36483;37.396;-122.212;2022-09-09T07:06:01;32.13;;;8.82;;
50531;SDS011;36483;37.396;-122.212;2022-09-09T07:08:27;30.80;;;9.30;;
50531;SDS011;36483;37.396;-122.212;2022-09-09T07:10:53;27.48;;;8.80;;
50531;SDS011;36483;37.396;-122.212;2022-09-09T07:13:23;34.90;;;9.63;;
50531;SDS011;36483;37.396;-122.212;2022-09-09T07:15:51;30.17;;;9.43;;
50531;SDS011;36483;37.396;-122.212;2022-09-09T07:18:17;31.77;;;9.13;;
50531;SDS011;36483;37.396;-122.212;2022-09-09T07:20:52;27.98;;;8.68;;
50531;SDS011;36483;37.396;-122.212;2022-09-09T07:23:22;34.25;;;8.70;;
50531;SDS011;36483;37.396;-122.212;2022-09-09T07:25:49;27.05;;;8.85;;
50531;SDS011;36483;37.396;-122.212;2022-09-09T07:28:16;31.40;;;8.88;;
50531;SDS011;36483;37.396;-122.212;2022-09-09T07:30:42;34.72;;;9.48;;
50531;SDS011;36483;37.396;-122.212;2022-09-09T07:33:09;28.65;;;9.00;;
50531;SDS011;36483;37.396;-122.212;2022-09-09T07:35:35;32.40;;;9.05;;
50531;SDS011;36483;37.396;-122.212;2022-09-09T07:38:02;27.55;;;8.63;;
50531;SDS011;36483;37.396;-122.212;2022-09-09T07:40:32;30.88;;;8.75;;
50531;SDS011;36483;37.396;-122.212;2022-09-09T07:42:59;34.15;;;10.07;;
50531;SDS011;36483;37.396;-122.212;2022-09-09T07:45:26;32.40;;;10.02;;
50531;SDS011;36483;37.396;-122.212;2022-09-09T07:47:57;30.17;;;9.30;;
50531;SDS011;36483;37.396;-122.212;2022-09-09T07:50:24;29.27;;;9.02;;
50531;SDS011;36483;37.396;-122.212;2022-09-09T07:52:53;28.10;;;8.80;;
50531;SDS011;36483;37.396;-122.212;2022-09-09T07:55:20;33.53;;;9.63;;
50531;SDS011;36483;37.396;-122.212;2022-09-09T07:57:46;29.90;;;8.75;;
50531;SDS011;36483;37.396;-122.212;2022-09-09T08:00:13;33.85;;;9.43;;
50531;SDS011;36483;37.396;-122.212;2022-09-09T08:02:40;33.42;;;9.95;;
50531;SDS011;36483;37.396;-122.212;2022-09-09T08:05:06;31.90;;;10.07;;
50531;SDS011;36483;37.396;-122.212;2022-09-09T08:07:32;38.70;;;9.48;;
50531;SDS011;36483;37.396;-122.212;2022-09-09T08:09:59;38.40;;;9.38;;
50531;SDS011;36483;37.396;-122.212;2022-09-09T08:12:25;36.40;;;9.77;;
50531;SDS011;36483;37.396;-122.212;2022-09-09T08:14:51;34.72;;;9.57;;
50531;SDS011;36483;37.396;-122.212;2022-09-09T08:17:21;29.65;;;8.85;;
50531;SDS011;36483;37.396;-122.212;2022-09-09T08:19:47;34.65;;;9.38;;
50531;SDS011;36483;37.396;-122.212;2022-09-09T08:22:13;29.42;;;8.90;;
50531;SDS011;36483;37.396;-122.212;2022-09-09T08:24:39;34.13;;;8.93;;
50531;SDS011;36483;37.396;-122.212;2022-09-09T08:27:06;31.90;;;9.07;;
50531;SDS011;36483;37.396;-122.212;2022-09-09T08:29:32;36.40;;;9.68;;
50531;SDS011;36483;37.396;-122.212;2022-09-09T08:31:59;31.08;;;8.93;;
50531;SDS011;36483;37.396;-122.212;2022-09-09T08:34:25;35.55;;;9.30;;
50531;SDS011;36483;37.396;-122.212;2022-09-09T08:36:52;33.42;;;9.75;;
50531;SDS011;36483;37.396;-122.212;2022-09-09T08:39:19;34.72;;;9.75;;
50531;SDS011;36483;37.396;-122.212;2022-09-09T08:55:05;33.10;;;10.25;;
50531;SDS011;36483;37.396;-122.212;2022-09-09T08:57:57;40.92;;;9.65;;
50531;SDS011;36483;37.396;-122.212;2022-09-09T09:11:56;33.38;;;10.52;;
50531;SDS011;36483;37.396;-122.212;2022-09-09T09:14:27;32.65;;;9.50;;
50531;SDS011;36483;37.396;-122.212;2022-09-09T09:16:59;29.55;;;9.50;;
50531;SDS011;36483;37.396;-122.212;2022-09-09T09:19:29;32.40;;;9.35;;
50531;SDS011;36483;37.396;-122.212;2022-09-09T09:21:59;28.55;;;9.25;;
50531;SDS011;36483;37.396;-122.212;2022-09-09T09:28:31;33.35;;;9.63;;
50531;SDS011;36483;37.396;-122.212;2022-09-09T09:30:47;31.15;;;9.32;;
50531;SDS011;36483;37.396;-122.212;2022-09-09T09:36:09;31.98;;;9.52;;
50531;SDS011;36483;37.396;-122.212;2022-09-09T09:38:36;35.85;;;9.32;;
50531;SDS011;36483;37.396;-122.212;2022-09-09T09:41:02;33.72;;;8.77;;
50531;SDS011;36483;37.396;-122.212;2022-09-09T09:43:32;39.90;;;10.02;;
50531;SDS011;36483;37.396;-122.212;2022-09-09T09:46:00;33.45;;;9.73;;
50531;SDS011;36483;37.396;-122.212;2022-09-09T09:48:29;29.77;;;8.60;;
50531;SDS011;36483;37.396;-122.212;2022-09-09T09:50:56;31.08;;;9.60;;
50531;SDS011;36483;37.396;-122.212;2022-09-09T09:53:25;36.00;;;10.27;;
50531;SDS011;36483;37.396;-122.212;2022-09-09T09:55:57;31.48;;;9.35;;
50531;SDS011;36483;37.396;-122.212;2022-09-09T09:58:25;38.65;;;9.73;;
50531;SDS011;36483;37.396;-122.212;2022-09-09T10:00:53;34.13;;;9.18;;
50531;SDS011;36483;37.396;-122.212;2022-09-09T10:03:30;38.53;;;10.63;;
50531;SDS011;36483;37.396;-122.212;2022-09-09T10:05:58;35.40;;;9.15;;
50531;SDS011;36483;37.396;-122.212;2022-09-09T10:08:26;31.10;;;9.18;;
50531;SDS011;36483;37.396;-122.212;2022-09-09T10:16:09;38.90;;;9.60;;
50531;SDS011;36483;37.396;-122.212;2022-09-09T10:22:26;31.35;;;9.35;;
50531;SDS011;36483;37.396;-122.212;2022-09-09T10:27:25;36.00;;;9.75;;
50531;SDS011;36483;37.396;-122.212;2022-09-09T10:30:03;35.38;;;9.50;;
50531;SDS011;36483;37.396;-122.212;2022-09-09T10:36:07;32.95;;;9.10;;
50531;SDS011;36483;37.396;-122.212;2022-09-09T10:38:45;39.45;;;10.32;;
50531;SDS011;36483;37.396;-122.212;2022-09-09T10:41:15;36.15;;;9.85;;
50531;SDS011;36483;37.396;-122.212;2022-09-09T10:54:31;32.78;;;9.70;;
50531;SDS011;36483;37.396;-122.212;2022-09-09T10:57:04;34.25;;;9.60;;
50531;SDS011;36483;37.396;-122.212;2022-09-09T10:59:38;36.00;;;9.30;;
50531;SDS011;36483;37.396;-122.212;2022-09-09T11:02:13;40.75;;;10.23;;
50531;SDS011;36483;37.396;-122.212;2022-09-09T11:04:45;32.25;;;9.40;;
50531;SDS011;36483;37.396;-122.212;2022-09-09T11:07:15;38.30;;;9.98;;
50531;SDS011;36483;37.396;-122.212;2022-09-09T11:09:54;38.75;;;10.43;;
50531;SDS011;36483;37.396;-122.212;2022-09-09T11:12:25;34.85;;;10.32;;
50531;SDS011;36483;37.396;-122.212;2022-09-09T11:15:01;35.17;;;10.18;;
50531;SDS011;36483;37.396;-122.212;2022-09-09T11:20:31;31.27;;;8.73;;
50531;SDS011;36483;37.396;-122.212;2022-09-09T11:23:09;37.95;;;9.85;;
50531;SDS011;36483;37.396;-122.212;2022-09-09T11:25:40;33.03;;;8.95;;
50531;SDS011;36483;37.396;-122.212;2022-09-09T11:30:54;35.33;;;9.70;;
50531;SDS011;36483;37.396;-122.212;2022-09-09T11:36:38;37.53;;;10.90;;
50531;SDS011;36483;37.396;-122.212;2022-09-09T11:44:38;36.83;;;9.13;;
50531;SDS011;36483;37.396;-122.212;2022-09-09T11:47:14;35.30;;;10.30;;
50531;SDS011;36483;37.396;-122.212;2022-09-09T11:49:54;33.95;;;9.20;;
50531;SDS011;36483;37.396;-122.212;2022-09-09T11:52:41;36.17;;;9.93;;
50531;SDS011;36483;37.396;-122.212;2022-09-09T11:58:05;37.67;;;10.15;;
50531;SDS011;36483;37.396;-122.212;2022-09-09T12:00:41;34.97;;;9.55;;
50531;SDS011;36483;37.396;-122.212;2022-09-09T12:10:01;33.55;;;8.50;;
50531;SDS011;36483;37.396;-122.212;2022-09-09T12:14:42;28.63;;;8.50;;
50531;SDS011;36483;37.396;-122.212;2022-09-09T12:17:20;30.40;;;9.27;;
50531;SDS011;36483;37.396;-122.212;2022-09-09T12:19:48;28.60;;;8.93;;
50531;SDS011;36483;37.396;-122.212;2022-09-09T12:22:35;32.67;;;9.23;;
50531;SDS011;36483;37.396;-122.212;2022-09-09T12:25:17;28.27;;;8.55;;
50531;SDS011;36483;37.396;-122.212;2022-09-09T12:28:09;32.33;;;9.05;;
50531;SDS011;36483;37.396;-122.212;2022-09-09T12:33:16;33.45;;;9.00;;
50531;SDS011;36483;37.396;-122.212;2022-09-09T12:35:43;33.53;;;8.80;;
50531;SDS011;36483;37.396;-122.212;2022-09-09T12:38:15;27.83;;;7.95;;
50531;SDS011;36483;37.396;-122.212;2022-09-09T12:40:55;28.58;;;8.75;;
50531;SDS011;36483;37.396;-122.212;2022-09-09T12:43:23;27.27;;;8.25;;
50531;SDS011;36483;37.396;-122.212;2022-09-09T12:45:51;32.60;;;8.75;;
50531;SDS011;36483;37.396;-122.212;2022-09-09T12:48:25;27.55;;;8.73;;
50531;SDS011;36483;37.396;-122.212;2022-09-09T12:50:55;32.25;;;10.00;;
50531;SDS011;36483;37.396;-122.212;2022-09-09T12:53:40;38.92;;;9.98;;
50531;SDS011;36483;37.396;-122.212;2022-09-09T12:56:07;30.27;;;9.07;;
50531;SDS011;36483;37.396;-122.212;2022-09-09T12:58:38;27.70;;;8.82;;
50531;SDS011;36483;37.396;-122.212;2022-09-09T13:01:05;27.85;;;8.20;;
50531;SDS011;36483;37.396;-122.212;2022-09-09T13:03:43;24.15;;;8.27;;
50531;SDS011;36483;37.396;-122.212;2022-09-09T13:06:11;34.80;;;9.73;;
50531;SDS011;36483;37.396;-122.212;2022-09-09T13:08:39;26.30;;;7.97;;
50531;SDS011;36483;37.396;-122.212;2022-09-09T13:11:48;28.55;;;8.75;;
50531;SDS011;36483;37.396;-122.212;2022-09-09T13:13:56;33.03;;;9.13;;
50531;SDS011;36483;37.396;-122.212;2022-09-09T13:16:26;30.52;;;8.82;;
50531;SDS011;36483;37.396;-122.212;2022-09-09T13:19:00;28.73;;;9.05;;
50531;SDS011;36483;37.396;-122.212;2022-09-09T13:21:31;30.65;;;9.10;;
50531;SDS011;36483;37.396;-122.212;2022-09-09T13:24:05;29.10;;;8.25;;
50531;SDS011;36483;37.396;-122.212;2022-09-09T13:26:33;31.17;;;9.13;;
50531;SDS011;36483;37.396;-122.212;2022-09-09T13:29:18;30.05;;;8.75;;
50531;SDS011;36483;37.396;-122.212;2022-09-09T13:31:44;27.40;;;7.95;;
50531;SDS011;36483;37.396;-122.212;2022-09-09T13:34:12;32.20;;;8.68;;
50531;SDS011;36483;37.396;-122.212;2022-09-09T13:36:39;30.13;;;8.77;;
50531;SDS011;36483;37.396;-122.212;2022-09-09T13:39:14;33.15;;;8.15;;
50531;SDS011;36483;37.396;-122.212;2022-09-09T13:41:43;30.25;;;8.63;;
50531;SDS011;36483;37.396;-122.212;2022-09-09T13:44:28;34.55;;;8.98;;
50531;SDS011;36483;37.396;-122.212;2022-09-09T13:47:03;27.08;;;8.18;;
50531;SDS011;36483;37.396;-122.212;2022-09-09T13:49:46;30.20;;;8.85;;
50531;SDS011;36483;37.396;-122.212;2022-09-09T13:52:13;31.38;;;8.70;;
50531;SDS011;36483;37.396;-122.212;2022-09-09T13:54:50;29.77;;;8.73;;
50531;SDS011;36483;37.396;-122.212;2022-09-09T13:59:47;28.45;;;8.40;;
50531;SDS011;36483;37.396;-122.212;2022-09-09T14:02:14;25.38;;;8.15;;
50531;SDS011;36483;37.396;-122.212;2022-09-09T14:04:41;28.25;;;8.52;;
50531;SDS011;36483;37.396;-122.212;2022-09-09T14:07:14;23.85;;;8.07;;
50531;SDS011;36483;37.396;-122.212;2022-09-09T14:09:41;32.13;;;8.85;;
50531;SDS011;36483;37.396;-122.212;2022-09-09T14:12:11;27.52;;;8.75;;
50531;SDS011;36483;37.396;-122.212;2022-09-09T14:14:37;28.38;;;8.55;;
50531;SDS011;36483;37.396;-122.212;2022-09-09T14:17:04;31.10;;;8.30;;
50531;SDS011;36483;37.396;-122.212;2022-09-09T14:19:30;28.10;;;8.65;;
50531;SDS011;36483;37.396;-122.212;2022-09-09T14:21:57;34.88;;;8.75;;
50531;SDS011;36483;37.396;-122.212;2022-09-09T14:24:23;25.88;;;7.95;;
50531;SDS011;36483;37.396;-122.212;2022-09-09T14:26:50;26.88;;;8.00;;
50531;SDS011;36483;37.396;-122.212;2022-09-09T14:29:16;20.40;;;7.53;;
50531;SDS011;36483;37.396;-122.212;2022-09-09T14:31:42;28.33;;;8.38;;
50531;SDS011;36483;37.396;-122.212;2022-09-09T14:34:08;24.75;;;8.57;;
50531;SDS011;36483;37.396;-122.212;2022-09-09T14:36:36;24.55;;;7.65;;
50531;SDS011;36483;37.396;-122.212;2022-09-09T14:39:03;29.85;;;8.38;;
50531;SDS011;36483;37.396;-122.212;2022-09-09T14:41:29;33.17;;;8.98;;
50531;SDS011;36483;37.396;-122.212;2022-09-09T14:43:56;27.02;;;8.80;;
50531;SDS011;36483;37.396;-122.212;2022-09-09T14:46:22;28.67;;;8.38;;
50531;SDS011;36483;37.396;-122.212;2022-09-09T14:48:49;28.02;;;8.32;;
50531;SDS011;36483;37.396;-122.212;2022-09-09T14:51:17;23.80;;;7.63;;
50531;SDS011;36483;37.396;-122.212;2022-09-09T14:53:53;29.35;;;9.10;;
50531;SDS011;36483;37.396;-122.212;2022-09-09T14:56:23;27.50;;;8.27;;
50531;SDS011;36483;37.396;-122.212;2022-09-09T14:58:55;24.83;;;7.50;;
50531;SDS011;36483;37.396;-122.212;2022-09-09T15:01:22;29.63;;;8.57;;
50531;SDS011;36483;37.396;-122.212;2022-09-09T15:03:58;26.02;;;7.50;;
50531;SDS011;36483;37.396;-122.212;2022-09-09T15:06:26;27.27;;;7.70;;
50531;SDS011;36483;37.396;-122.212;2022-09-09T15:08:54;31.58;;;8.95;;
50531;SDS011;36483;37.396;-122.212;2022-09-09T15:11:23;31.60;;;8.15;;
50531;SDS011;36483;37.396;-122.212;2022-09-09T15:13:51;33.90;;;9.35;;
50531;SDS011;36483;37.396;-122.212;2022-09-09T15:16:21;40.15;;;11.00;;
50531;SDS011;36483;37.396;-122.212;2022-09-09T15:18:51;44.45;;;11.45;;
50531;SDS011;36483;37.396;-122.212;2022-09-09T15:21:20;39.20;;;10.30;;
50531;SDS011;36483;37.396;-122.212;2022-09-09T15:23:48;44.60;;;10.73;;
50531;SDS011;36483;37.396;-122.212;2022-09-09T15:26:14;51.08;;;11.40;;
50531;SDS011;36483;37.396;-122.212;2022-09-09T15:28:42;42.55;;;11.63;;
50531;SDS011;36483;37.396;-122.212;2022-09-09T15:31:11;42.58;;;11.32;;
50531;SDS011;36483;37.396;-122.212;2022-09-09T15:33:51;48.17;;;11.13;;
50531;SDS011;36483;37.396;-122.212;2022-09-09T15:36:25;51.40;;;11.45;;
50531;SDS011;36483;37.396;-122.212;2022-09-09T15:38:54;36.63;;;10.27;;
50531;SDS011;36483;37.396;-122.212;2022-09-09T15:41:20;41.40;;;10.88;;
50531;SDS011;36483;37.396;-122.212;2022-09-09T15:43:48;39.78;;;9.93;;
50531;SDS011;36483;37.396;-122.212;2022-09-09T15:46:29;43.70;;;10.88;;
50531;SDS011;36483;37.396;-122.212;2022-09-09T15:49:10;41.38;;;10.85;;
50531;SDS011;36483;37.396;-122.212;2022-09-09T15:51:46;43.50;;;10.98;;
50531;SDS011;36483;37.396;-122.212;2022-09-09T15:54:17;38.92;;;10.13;;
50531;SDS011;36483;37.396;-122.212;2022-09-09T15:56:46;40.20;;;10.95;;
50531;SDS011;36483;37.396;-122.212;2022-09-09T15:59:13;41.22;;;10.60;;
50531;SDS011;36483;37.396;-122.212;2022-09-09T16:01:40;43.45;;;9.82;;
50531;SDS011;36483;37.396;-122.212;2022-09-09T16:04:07;40.50;;;10.52;;
50531;SDS011;36483;37.396;-122.212;2022-09-09T16:06:33;41.28;;;10.57;;
50531;SDS011;36483;37.396;-122.212;2022-09-09T16:09:01;43.78;;;10.52;;
50531;SDS011;36483;37.396;-122.212;2022-09-09T16:11:33;38.70;;;10.38;;
50531;SDS011;36483;37.396;-122.212;2022-09-09T16:14:01;39.72;;;11.02;;
50531;SDS011;36483;37.396;-122.212;2022-09-09T16:16:29;44.50;;;10.98;;
50531;SDS011;36483;37.396;-122.212;2022-09-09T16:18:56;47.17;;;11.05;;
50531;SDS011;36483;37.396;-122.212;2022-09-09T16:21:24;48.30;;;11.88;;
50531;SDS011;36483;37.396;-122.212;2022-09-09T16:23:54;49.97;;;11.95;;
50531;SDS011;36483;37.396;-122.212;2022-09-09T16:26:21;45.67;;;11.02;;
50531;SDS011;36483;37.396;-122.212;2022-09-09T16:28:48;37.65;;;9.82;;
50531;SDS011;36483;37.396;-122.212;2022-09-09T16:31:18;40.17;;;10.77;;